This is the latest recevied weather packets stored in our database for station/object WA1NHP. If no packets are shown the sender has not sent any weather packets the latest 1 day(s).
| Time | Temp. | Humidity | Pressure | Rain* | Wind** | Luminosity | Snow |
|---|---|---|---|---|---|---|---|
| 1778046844 | 15° C | 77% | 1023.9 hPa | 0 mm | - | 0 W/m² | - |
| 1778046244 | 15° C | 77% | 1023.9 hPa | 0 mm | - | 0 W/m² | - |
| 1778045644 | 15° C | 77% | 1023.9 hPa | 0 mm | - | 0 W/m² | - |
| 1778045044 | 15° C | 76% | 1023.9 hPa | 0 mm | - | 0 W/m² | - |
| 1778043844 | 15.56° C | 75% | 1023.9 hPa | 0 mm | - | 0 W/m² | - |
| 1778043244 | 15.56° C | 75% | 1023.9 hPa | 0 mm | - | 0 W/m² | - |
| 1778042644 | 15.56° C | 75% | 1023.9 hPa | 0 mm | - | 0 W/m² | - |
| 1778041444 | 15.56° C | 74% | 1023.9 hPa | 0 mm | - | 0 W/m² | - |
| 1778040844 | 15.56° C | 74% | 1023.9 hPa | 0 mm | - | 0 W/m² | - |
| 1778040244 | 15.56° C | 74% | 1023.9 hPa | 0 mm | - | 0 W/m² | - |
| 1778038444 | 15.56° C | 74% | 1023.9 hPa | 0 mm | - | 0 W/m² | - |
| 1778037844 | 15.56° C | 74% | 1023.9 hPa | 0 mm | - | 0 W/m² | - |
| 1778036045 | 16.11° C | 75% | 1023.9 hPa | 0 mm | - | 0 W/m² | - |
| 1778035444 | 16.11° C | 75% | 1023.9 hPa | 0 mm | - | 0 W/m² | - |
| 1778034844 | 16.11° C | 75% | 1023.9 hPa | 0 mm | - | 0 W/m² | - |
| 1778033644 | 16.11° C | 75% | 1023.9 hPa | 0 mm | - | 0 W/m² | - |
| 1778032444 | 16.67° C | 76% | 1023.9 hPa | 0 mm | - | 0 W/m² | - |
| 1778031844 | 16.67° C | 76% | 1023.9 hPa | 0 mm | - | 0 W/m² | - |
| 1778030044 | 16.67° C | 79% | 1023.9 hPa | 0 mm | - | 0 W/m² | - |
| 1778029445 | 16.67° C | 80% | 1023.9 hPa | 0 mm | - | 0 W/m² | - |
| 1778027644 | 16.67° C | 83% | 1023.9 hPa | 0 mm | - | 0 W/m² | - |
| 1778022244 | 22.22° C | 52% | 1023.9 hPa | 0 mm | - | 28 W/m² | - |
| 1778019844 | 22.78° C | 50% | 1023.9 hPa | 0 mm | - | 79 W/m² | - |
| 1778017444 | 23.89° C | 48% | 1023.9 hPa | 0 mm | - | 130 W/m² | - |
* Rain latest hour (hover to see other rain measurements)
** Current wind speed in m/s (hover to see current wind gust speed)